Mayport Ns (Adm David L. Mcdonald Field) Airport
KNRB : rendu visible

Aérodrome :











RETROUVEZ-NOUS SUR...

 
LOGIN :

S'inscrire | Disclaimer

   EN    FR    IT 

 









Légende :    VFR   VFR Marginal   IFR   IFR Intensif   IFR Très Intensif
Visi : 
Plafond : 
>= 8 km
>= 3000ft
5 à 8 km
1000 à 3000 ft
1500m à 5 km
500 à 1000 ft
800 à 1500m
200 à 500 ft
< 800m
< 200 ft
Symboles :   Orages  Brouillard  Fortes neiges  Fortes précipitations  Vent > 20 kt






- Altitude de l'aérodrome : 15 ft


KNRB - Mayport Ns (Adm David L. Mcdonald Field)

DERNIER METAR :
  • 121052Z 22004KT 7SM MIFG BKN280 15/14 A2994 RMK AO2 SLP138 T01500144 $

METARs EXPIRÉS :
  • 121003Z 00000KT 7SM MIFG BKN280 16/16 A2995 RMK AO2 T01560156 $
  • 120952Z AUTO 00000KT 10SM CLR 17/16 A2995 RMK AO2 SLP140 T01670161 $
  • 120937Z AUTO 27004KT 1SM BR CLR 17/16 A2995 RMK AO2 T01670156 $
  • 120918Z AUTO 00000KT 1SM BR CLR 16/15 A2995 RMK AO2 T01560150 $
  • 120910Z AUTO 23003KT 1/2SM FG CLR 15/15 A2996 RMK AO2 T01500150 $
  • 120902Z AUTO 22003KT 1/4SM FG CLR 16/15 A2996 RMK AO2 T01560150 $
  • 120852Z AUTO 00000KT 1/2SM FG CLR 16/16 A2996 RMK AO2 SLP144 T01560156 56025 $

TAF TAF KNRB
Valide du 12 à 07h jusqu'au 13 à 07h UTC


1207/1307 VRB05KT 9999 FEW020 SCT050 SCT250 QNH2992INS
BECMG 1214/1216 9999 VCSH SCT010 BKN050 OVC100 QNH2985INS
TEMPO 1217/1221 6000 RA BKN010 OVC030
BECMG 1220/1221 34015G24KT QNH2984INS
TEMPO 1221/1303 6000 RA BKN010 OVC030
BECMG 1304/1306 9999 NSW FEW030 SCT060 BKN250 QNH3004INS AUTOMATED SENSOR METWATCH 1207 TIL 1210 T24/1219Z T12/1307Z FN00197



MET'MAP, la Météo Aéronautique d'un coup d'oeil ! - Copyright ORBIFLY Décembre 2007 - Disclaimer

ORBIFLY MET'MAP TEAM :

Programmation & Développement : Alexandra Zaïnal
Conception & Développement : Baudouin d'Aumeries
Co-Programmation & Développement : Marc-Olivier Méhu
Soutien technique & logistique : Manuel Goepfert

Contact : metmap@orbifly.com




SOURCES & CREDITS :

   NOAA       Earth
Advisory